sensor_id;sensor_type;location;lat;lon;timestamp;P1;durP1;ratioP1;P2;durP2;ratioP2
41817;SDS011;27493;51.730;5.294;2022-11-20T00:00:04;17.23;;;9.00;;
41817;SDS011;27493;51.730;5.294;2022-11-20T00:02:30;16.63;;;9.83;;
41817;SDS011;27493;51.730;5.294;2022-11-20T00:04:55;16.53;;;9.93;;
41817;SDS011;27493;51.730;5.294;2022-11-20T00:07:20;16.97;;;10.13;;
41817;SDS011;27493;51.730;5.294;2022-11-20T00:09:45;17.60;;;9.53;;
41817;SDS011;27493;51.730;5.294;2022-11-20T00:12:10;14.97;;;9.40;;
41817;SDS011;27493;51.730;5.294;2022-11-20T00:14:35;16.77;;;9.77;;
41817;SDS011;27493;51.730;5.294;2022-11-20T00:17:00;14.93;;;9.40;;
41817;SDS011;27493;51.730;5.294;2022-11-20T00:19:26;17.60;;;10.57;;
41817;SDS011;27493;51.730;5.294;2022-11-20T00:21:51;17.13;;;10.60;;
41817;SDS011;27493;51.730;5.294;2022-11-20T00:24:18;14.87;;;9.50;;
41817;SDS011;27493;51.730;5.294;2022-11-20T00:26:43;15.63;;;9.73;;
41817;SDS011;27493;51.730;5.294;2022-11-20T00:29:09;17.53;;;9.67;;
41817;SDS011;27493;51.730;5.294;2022-11-20T00:31:35;16.27;;;9.83;;
41817;SDS011;27493;51.730;5.294;2022-11-20T00:34:00;16.53;;;10.00;;
41817;SDS011;27493;51.730;5.294;2022-11-20T00:36:26;16.63;;;9.60;;
41817;SDS011;27493;51.730;5.294;2022-11-20T00:38:52;18.30;;;10.50;;
41817;SDS011;27493;51.730;5.294;2022-11-20T00:41:18;19.00;;;11.03;;
41817;SDS011;27493;51.730;5.294;2022-11-20T00:43:43;16.80;;;9.33;;
41817;SDS011;27493;51.730;5.294;2022-11-20T00:46:15;17.07;;;10.00;;
41817;SDS011;27493;51.730;5.294;2022-11-20T00:48:41;18.47;;;10.07;;
41817;SDS011;27493;51.730;5.294;2022-11-20T00:51:07;18.33;;;10.67;;
41817;SDS011;27493;51.730;5.294;2022-11-20T00:53:32;18.33;;;10.87;;
41817;SDS011;27493;51.730;5.294;2022-11-20T00:58:22;16.98;;;10.20;;
41817;SDS011;27493;51.730;5.294;2022-11-20T01:00:48;16.30;;;10.43;;
41817;SDS011;27493;51.730;5.294;2022-11-20T01:03:14;17.47;;;10.23;;
41817;SDS011;27493;51.730;5.294;2022-11-20T01:05:39;17.40;;;10.60;;
41817;SDS011;27493;51.730;5.294;2022-11-20T01:08:05;18.00;;;10.60;;
41817;SDS011;27493;51.730;5.294;2022-11-20T01:10:30;19.50;;;10.60;;
41817;SDS011;27493;51.730;5.294;2022-11-20T01:12:55;16.90;;;10.63;;
41817;SDS011;27493;51.730;5.294;2022-11-20T01:15:39;18.40;;;10.20;;
41817;SDS011;27493;51.730;5.294;2022-11-20T01:18:04;18.67;;;10.50;;
41817;SDS011;27493;51.730;5.294;2022-11-20T01:20:30;18.80;;;11.07;;
41817;SDS011;27493;51.730;5.294;2022-11-20T01:22:55;19.10;;;10.53;;
41817;SDS011;27493;51.730;5.294;2022-11-20T01:25:20;19.97;;;11.27;;
41817;SDS011;27493;51.730;5.294;2022-11-20T01:27:45;19.67;;;10.50;;
41817;SDS011;27493;51.730;5.294;2022-11-20T01:30:11;18.73;;;10.57;;
41817;SDS011;27493;51.730;5.294;2022-11-20T01:32:36;18.63;;;11.00;;
41817;SDS011;27493;51.730;5.294;2022-11-20T01:35:01;17.67;;;10.17;;
41817;SDS011;27493;51.730;5.294;2022-11-20T01:37:26;18.73;;;10.17;;
41817;SDS011;27493;51.730;5.294;2022-11-20T01:39:51;21.53;;;11.13;;
41817;SDS011;27493;51.730;5.294;2022-11-20T01:42:17;20.63;;;11.60;;
41817;SDS011;27493;51.730;5.294;2022-11-20T01:45:00;22.47;;;10.77;;
41817;SDS011;27493;51.730;5.294;2022-11-20T01:49:56;21.93;;;11.03;;
41817;SDS011;27493;51.730;5.294;2022-11-20T01:52:23;19.43;;;10.63;;
41817;SDS011;27493;51.730;5.294;2022-11-20T01:55:24;20.57;;;10.90;;
41817;SDS011;27493;51.730;5.294;2022-11-20T01:57:41;16.97;;;9.80;;
41817;SDS011;27493;51.730;5.294;2022-11-20T02:00:10;18.53;;;11.00;;
41817;SDS011;27493;51.730;5.294;2022-11-20T02:02:36;17.27;;;10.53;;
41817;SDS011;27493;51.730;5.294;2022-11-20T02:05:04;19.83;;;10.80;;
41817;SDS011;27493;51.730;5.294;2022-11-20T02:07:33;18.77;;;11.23;;
41817;SDS011;27493;51.730;5.294;2022-11-20T02:09:58;17.50;;;10.83;;
41817;SDS011;27493;51.730;5.294;2022-11-20T02:12:23;20.40;;;10.97;;
41817;SDS011;27493;51.730;5.294;2022-11-20T02:15:07;18.83;;;10.73;;
41817;SDS011;27493;51.730;5.294;2022-11-20T02:17:32;19.03;;;10.50;;
41817;SDS011;27493;51.730;5.294;2022-11-20T02:19:57;19.33;;;10.87;;
41817;SDS011;27493;51.730;5.294;2022-11-20T02:22:28;18.03;;;10.67;;
41817;SDS011;27493;51.730;5.294;2022-11-20T02:24:55;20.97;;;11.33;;
41817;SDS011;27493;51.730;5.294;2022-11-20T02:27:22;18.57;;;10.60;;
41817;SDS011;27493;51.730;5.294;2022-11-20T02:29:49;18.67;;;10.90;;
41817;SDS011;27493;51.730;5.294;2022-11-20T02:34:54;18.13;;;10.50;;
41817;SDS011;27493;51.730;5.294;2022-11-20T02:37:19;20.47;;;10.73;;
41817;SDS011;27493;51.730;5.294;2022-11-20T02:39:46;17.40;;;10.63;;
41817;SDS011;27493;51.730;5.294;2022-11-20T02:42:11;21.03;;;10.37;;
41817;SDS011;27493;51.730;5.294;2022-11-20T02:44:37;19.40;;;10.33;;
41817;SDS011;27493;51.730;5.294;2022-11-20T02:47:02;21.50;;;11.10;;
41817;SDS011;27493;51.730;5.294;2022-11-20T02:49:27;17.40;;;10.07;;
41817;SDS011;27493;51.730;5.294;2022-11-20T02:51:53;19.07;;;10.80;;
41817;SDS011;27493;51.730;5.294;2022-11-20T02:54:18;17.77;;;10.70;;
41817;SDS011;27493;51.730;5.294;2022-11-20T02:56:43;18.67;;;10.90;;
41817;SDS011;27493;51.730;5.294;2022-11-20T02:59:08;21.70;;;10.90;;
41817;SDS011;27493;51.730;5.294;2022-11-20T03:01:34;19.20;;;10.77;;
41817;SDS011;27493;51.730;5.294;2022-11-20T03:03:59;19.73;;;10.93;;
41817;SDS011;27493;51.730;5.294;2022-11-20T03:06:24;16.30;;;9.73;;
41817;SDS011;27493;51.730;5.294;2022-11-20T03:08:49;17.87;;;10.20;;
41817;SDS011;27493;51.730;5.294;2022-11-20T03:11:15;17.20;;;10.17;;
41817;SDS011;27493;51.730;5.294;2022-11-20T03:13:40;18.53;;;10.63;;
41817;SDS011;27493;51.730;5.294;2022-11-20T03:16:10;16.87;;;9.83;;
41817;SDS011;27493;51.730;5.294;2022-11-20T03:18:36;16.73;;;10.13;;
41817;SDS011;27493;51.730;5.294;2022-11-20T03:21:01;17.20;;;9.83;;
41817;SDS011;27493;51.730;5.294;2022-11-20T03:23:28;17.13;;;10.70;;
41817;SDS011;27493;51.730;5.294;2022-11-20T03:25:53;16.43;;;10.40;;
41817;SDS011;27493;51.730;5.294;2022-11-20T03:28:18;19.50;;;10.70;;
41817;SDS011;27493;51.730;5.294;2022-11-20T03:30:43;17.70;;;9.90;;
41817;SDS011;27493;51.730;5.294;2022-11-20T03:33:09;15.17;;;10.00;;
41817;SDS011;27493;51.730;5.294;2022-11-20T03:35:34;19.13;;;10.53;;
41817;SDS011;27493;51.730;5.294;2022-11-20T03:37:59;20.23;;;11.20;;
41817;SDS011;27493;51.730;5.294;2022-11-20T03:40:24;21.23;;;11.10;;
41817;SDS011;27493;51.730;5.294;2022-11-20T03:42:49;19.17;;;10.87;;
41817;SDS011;27493;51.730;5.294;2022-11-20T03:45:18;20.03;;;10.40;;
41817;SDS011;27493;51.730;5.294;2022-11-20T03:47:43;18.40;;;11.07;;
41817;SDS011;27493;51.730;5.294;2022-11-20T03:50:09;20.00;;;11.03;;
41817;SDS011;27493;51.730;5.294;2022-11-20T03:52:34;19.47;;;11.07;;
41817;SDS011;27493;51.730;5.294;2022-11-20T03:55:00;21.57;;;11.70;;
41817;SDS011;27493;51.730;5.294;2022-11-20T03:57:25;17.30;;;10.33;;
41817;SDS011;27493;51.730;5.294;2022-11-20T03:59:50;19.10;;;11.13;;
41817;SDS011;27493;51.730;5.294;2022-11-20T04:02:15;17.97;;;10.63;;
41817;SDS011;27493;51.730;5.294;2022-11-20T04:04:41;20.07;;;11.53;;
41817;SDS011;27493;51.730;5.294;2022-11-20T04:07:06;18.43;;;10.60;;
41817;SDS011;27493;51.730;5.294;2022-11-20T04:09:31;20.10;;;11.20;;
41817;SDS011;27493;51.730;5.294;2022-11-20T04:11:56;20.20;;;11.37;;
41817;SDS011;27493;51.730;5.294;2022-11-20T04:14:21;17.97;;;10.47;;
41817;SDS011;27493;51.730;5.294;2022-11-20T04:16:47;19.27;;;10.23;;
41817;SDS011;27493;51.730;5.294;2022-11-20T04:19:13;18.30;;;10.30;;
41817;SDS011;27493;51.730;5.294;2022-11-20T04:21:39;17.60;;;10.70;;
41817;SDS011;27493;51.730;5.294;2022-11-20T04:24:04;21.53;;;11.57;;
41817;SDS011;27493;51.730;5.294;2022-11-20T04:26:29;18.63;;;10.90;;
41817;SDS011;27493;51.730;5.294;2022-11-20T04:28:55;18.67;;;10.93;;
41817;SDS011;27493;51.730;5.294;2022-11-20T04:31:21;19.03;;;11.13;;
41817;SDS011;27493;51.730;5.294;2022-11-20T04:33:46;19.03;;;11.23;;
41817;SDS011;27493;51.730;5.294;2022-11-20T04:36:15;22.07;;;11.40;;
41817;SDS011;27493;51.730;5.294;2022-11-20T04:38:41;18.57;;;10.80;;
41817;SDS011;27493;51.730;5.294;2022-11-20T04:41:06;20.33;;;11.67;;
41817;SDS011;27493;51.730;5.294;2022-11-20T04:43:32;20.53;;;11.63;;
41817;SDS011;27493;51.730;5.294;2022-11-20T04:45:58;19.70;;;10.73;;
41817;SDS011;27493;51.730;5.294;2022-11-20T04:48:23;19.63;;;10.70;;
41817;SDS011;27493;51.730;5.294;2022-11-20T04:50:49;19.63;;;11.53;;
41817;SDS011;27493;51.730;5.294;2022-11-20T04:53:15;21.17;;;11.83;;
41817;SDS011;27493;51.730;5.294;2022-11-20T04:55:40;20.60;;;11.43;;
41817;SDS011;27493;51.730;5.294;2022-11-20T04:58:05;20.90;;;11.53;;
41817;SDS011;27493;51.730;5.294;2022-11-20T05:00:31;21.23;;;12.10;;
41817;SDS011;27493;51.730;5.294;2022-11-20T05:02:56;22.67;;;11.63;;
41817;SDS011;27493;51.730;5.294;2022-11-20T05:05:21;20.20;;;11.63;;
41817;SDS011;27493;51.730;5.294;2022-11-20T05:07:46;18.53;;;11.33;;
41817;SDS011;27493;51.730;5.294;2022-11-20T05:10:11;21.53;;;11.53;;
41817;SDS011;27493;51.730;5.294;2022-11-20T05:12:37;17.13;;;11.37;;
41817;SDS011;27493;51.730;5.294;2022-11-20T05:15:02;20.63;;;11.07;;
41817;SDS011;27493;51.730;5.294;2022-11-20T05:17:27;20.23;;;11.00;;
41817;SDS011;27493;51.730;5.294;2022-11-20T05:19:52;21.50;;;11.47;;
41817;SDS011;27493;51.730;5.294;2022-11-20T05:22:17;19.53;;;11.83;;
41817;SDS011;27493;51.730;5.294;2022-11-20T05:24:42;22.37;;;11.63;;
41817;SDS011;27493;51.730;5.294;2022-11-20T05:27:08;21.08;;;11.48;;
41817;SDS011;27493;51.730;5.294;2022-11-20T05:29:33;21.97;;;12.10;;
41817;SDS011;27493;51.730;5.294;2022-11-20T05:31:58;21.17;;;11.53;;
41817;SDS011;27493;51.730;5.294;2022-11-20T05:34:23;21.10;;;11.23;;
41817;SDS011;27493;51.730;5.294;2022-11-20T05:36:48;20.77;;;11.63;;
41817;SDS011;27493;51.730;5.294;2022-11-20T05:39:13;18.90;;;11.20;;
41817;SDS011;27493;51.730;5.294;2022-11-20T05:41:39;19.77;;;11.17;;
41817;SDS011;27493;51.730;5.294;2022-11-20T05:44:04;22.03;;;12.27;;
41817;SDS011;27493;51.730;5.294;2022-11-20T05:46:29;26.50;;;12.30;;
41817;SDS011;27493;51.730;5.294;2022-11-20T05:48:54;23.73;;;12.13;;
41817;SDS011;27493;51.730;5.294;2022-11-20T05:51:20;23.77;;;12.17;;
41817;SDS011;27493;51.730;5.294;2022-11-20T05:53:45;23.87;;;11.90;;
41817;SDS011;27493;51.730;5.294;2022-11-20T05:56:12;24.13;;;12.53;;
41817;SDS011;27493;51.730;5.294;2022-11-20T05:58:38;22.77;;;12.27;;
41817;SDS011;27493;51.730;5.294;2022-11-20T06:01:11;21.80;;;11.57;;
41817;SDS011;27493;51.730;5.294;2022-11-20T06:03:36;25.50;;;12.93;;
41817;SDS011;27493;51.730;5.294;2022-11-20T06:06:02;20.37;;;11.33;;
41817;SDS011;27493;51.730;5.294;2022-11-20T06:08:28;20.90;;;12.13;;
41817;SDS011;27493;51.730;5.294;2022-11-20T06:10:53;20.53;;;11.97;;
41817;SDS011;27493;51.730;5.294;2022-11-20T06:13:19;22.20;;;12.03;;
41817;SDS011;27493;51.730;5.294;2022-11-20T06:15:50;25.73;;;12.40;;
41817;SDS011;27493;51.730;5.294;2022-11-20T06:18:15;24.97;;;12.23;;
41817;SDS011;27493;51.730;5.294;2022-11-20T06:20:40;19.37;;;11.70;;
41817;SDS011;27493;51.730;5.294;2022-11-20T06:23:05;22.30;;;12.30;;
41817;SDS011;27493;51.730;5.294;2022-11-20T06:25:31;23.97;;;12.77;;
41817;SDS011;27493;51.730;5.294;2022-11-20T06:27:56;25.03;;;13.23;;
41817;SDS011;27493;51.730;5.294;2022-11-20T06:30:21;22.60;;;12.67;;
41817;SDS011;27493;51.730;5.294;2022-11-20T06:32:46;24.90;;;12.73;;
41817;SDS011;27493;51.730;5.294;2022-11-20T06:35:11;23.23;;;11.93;;
41817;SDS011;27493;51.730;5.294;2022-11-20T06:37:36;21.30;;;12.37;;
41817;SDS011;27493;51.730;5.294;2022-11-20T06:40:02;23.63;;;12.47;;
41817;SDS011;27493;51.730;5.294;2022-11-20T06:42:27;23.03;;;12.87;;
41817;SDS011;27493;51.730;5.294;2022-11-20T06:44:52;26.77;;;13.83;;
41817;SDS011;27493;51.730;5.294;2022-11-20T06:47:17;25.63;;;13.10;;
41817;SDS011;27493;51.730;5.294;2022-11-20T06:49:42;25.17;;;13.87;;
41817;SDS011;27493;51.730;5.294;2022-11-20T06:52:08;22.13;;;12.80;;
41817;SDS011;27493;51.730;5.294;2022-11-20T06:54:33;29.20;;;14.23;;
41817;SDS011;27493;51.730;5.294;2022-11-20T06:56:58;24.57;;;13.27;;
41817;SDS011;27493;51.730;5.294;2022-11-20T06:59:23;24.17;;;13.87;;
41817;SDS011;27493;51.730;5.294;2022-11-20T07:01:48;25.00;;;14.37;;
41817;SDS011;27493;51.730;5.294;2022-11-20T07:04:14;26.77;;;14.33;;
41817;SDS011;27493;51.730;5.294;2022-11-20T07:06:39;24.60;;;13.43;;
41817;SDS011;27493;51.730;5.294;2022-11-20T07:09:04;25.10;;;14.00;;
41817;SDS011;27493;51.730;5.294;2022-11-20T07:11:29;24.43;;;13.13;;
41817;SDS011;27493;51.730;5.294;2022-11-20T07:13:54;23.67;;;13.50;;
41817;SDS011;27493;51.730;5.294;2022-11-20T07:16:21;24.27;;;13.77;;
41817;SDS011;27493;51.730;5.294;2022-11-20T07:18:46;23.93;;;13.83;;
41817;SDS011;27493;51.730;5.294;2022-11-20T07:21:11;25.77;;;14.30;;
41817;SDS011;27493;51.730;5.294;2022-11-20T07:23:37;23.17;;;13.70;;
41817;SDS011;27493;51.730;5.294;2022-11-20T07:26:05;24.37;;;13.17;;
41817;SDS011;27493;51.730;5.294;2022-11-20T07:28:31;24.33;;;13.63;;
41817;SDS011;27493;51.730;5.294;2022-11-20T07:30:56;27.83;;;14.47;;
41817;SDS011;27493;51.730;5.294;2022-11-20T07:33:21;23.07;;;13.60;;
41817;SDS011;27493;51.730;5.294;2022-11-20T07:35:47;30.53;;;15.43;;
41817;SDS011;27493;51.730;5.294;2022-11-20T07:38:12;27.33;;;14.80;;
41817;SDS011;27493;51.730;5.294;2022-11-20T07:40:37;27.23;;;13.77;;
41817;SDS011;27493;51.730;5.294;2022-11-20T07:43:02;24.87;;;13.63;;
41817;SDS011;27493;51.730;5.294;2022-11-20T07:45:27;26.57;;;13.77;;
41817;SDS011;27493;51.730;5.294;2022-11-20T07:47:52;24.33;;;14.23;;
41817;SDS011;27493;51.730;5.294;2022-11-20T07:50:18;25.15;;;13.82;;
41817;SDS011;27493;51.730;5.294;2022-11-20T07:52:44;24.03;;;14.20;;
41817;SDS011;27493;51.730;5.294;2022-11-20T07:55:09;26.73;;;14.83;;
41817;SDS011;27493;51.730;5.294;2022-11-20T07:57:34;25.10;;;14.23;;
41817;SDS011;27493;51.730;5.294;2022-11-20T08:00:00;25.90;;;15.20;;
41817;SDS011;27493;51.730;5.294;2022-11-20T08:02:25;24.23;;;14.67;;
41817;SDS011;27493;51.730;5.294;2022-11-20T08:04:51;20.63;;;13.80;;
41817;SDS011;27493;51.730;5.294;2022-11-20T08:07:16;25.93;;;14.90;;
41817;SDS011;27493;51.730;5.294;2022-11-20T08:09:41;24.37;;;13.67;;
41817;SDS011;27493;51.730;5.294;2022-11-20T08:12:06;25.10;;;14.27;;
41817;SDS011;27493;51.730;5.294;2022-11-20T08:14:50;24.63;;;14.50;;
41817;SDS011;27493;51.730;5.294;2022-11-20T08:17:16;26.47;;;14.50;;
41817;SDS011;27493;51.730;5.294;2022-11-20T08:19:41;24.50;;;14.17;;
41817;SDS011;27493;51.730;5.294;2022-11-20T08:22:06;25.60;;;14.97;;
41817;SDS011;27493;51.730;5.294;2022-11-20T08:24:31;28.10;;;14.43;;
41817;SDS011;27493;51.730;5.294;2022-11-20T08:26:57;23.93;;;14.23;;
41817;SDS011;27493;51.730;5.294;2022-11-20T08:29:23;24.37;;;14.83;;
41817;SDS011;27493;51.730;5.294;2022-11-20T08:31:48;22.00;;;14.17;;
41817;SDS011;27493;51.730;5.294;2022-11-20T08:34:13;25.50;;;14.73;;
41817;SDS011;27493;51.730;5.294;2022-11-20T08:36:38;25.17;;;14.73;;
41817;SDS011;27493;51.730;5.294;2022-11-20T08:39:03;26.07;;;14.90;;
41817;SDS011;27493;51.730;5.294;2022-11-20T08:41:29;27.03;;;14.30;;
41817;SDS011;27493;51.730;5.294;2022-11-20T08:43:57;27.93;;;15.27;;
41817;SDS011;27493;51.730;5.294;2022-11-20T08:46:26;27.00;;;15.20;;
41817;SDS011;27493;51.730;5.294;2022-11-20T08:48:52;25.60;;;14.90;;
41817;SDS011;27493;51.730;5.294;2022-11-20T08:54:16;24.17;;;14.60;;
41817;SDS011;27493;51.730;5.294;2022-11-20T08:56:53;25.73;;;14.90;;
41817;SDS011;27493;51.730;5.294;2022-11-20T08:59:19;26.03;;;15.23;;
41817;SDS011;27493;51.730;5.294;2022-11-20T09:01:44;30.70;;;16.57;;
41817;SDS011;27493;51.730;5.294;2022-11-20T09:04:09;26.83;;;15.97;;
41817;SDS011;27493;51.730;5.294;2022-11-20T09:06:34;26.43;;;15.70;;
41817;SDS011;27493;51.730;5.294;2022-11-20T09:09:00;26.27;;;15.60;;
41817;SDS011;27493;51.730;5.294;2022-11-20T09:11:25;28.27;;;15.70;;
41817;SDS011;27493;51.730;5.294;2022-11-20T09:13:50;29.30;;;16.77;;
41817;SDS011;27493;51.730;5.294;2022-11-20T09:16:15;29.60;;;15.50;;
41817;SDS011;27493;51.730;5.294;2022-11-20T09:18:40;28.70;;;15.43;;
41817;SDS011;27493;51.730;5.294;2022-11-20T09:21:08;27.77;;;16.43;;
41817;SDS011;27493;51.730;5.294;2022-11-20T09:23:34;27.93;;;15.53;;
41817;SDS011;27493;51.730;5.294;2022-11-20T09:26:03;27.83;;;16.23;;
41817;SDS011;27493;51.730;5.294;2022-11-20T09:28:29;28.80;;;15.97;;
41817;SDS011;27493;51.730;5.294;2022-11-20T09:30:54;31.30;;;16.20;;
41817;SDS011;27493;51.730;5.294;2022-11-20T09:33:20;28.57;;;16.10;;
41817;SDS011;27493;51.730;5.294;2022-11-20T09:35:45;27.43;;;16.20;;
41817;SDS011;27493;51.730;5.294;2022-11-20T09:38:10;27.73;;;16.43;;
41817;SDS011;27493;51.730;5.294;2022-11-20T09:40:37;27.67;;;16.23;;
41817;SDS011;27493;51.730;5.294;2022-11-20T09:46:06;28.80;;;16.70;;
41817;SDS011;27493;51.730;5.294;2022-11-20T09:48:39;32.13;;;15.73;;
41817;SDS011;27493;51.730;5.294;2022-11-20T09:51:21;30.43;;;17.20;;
41817;SDS011;27493;51.730;5.294;2022-11-20T09:56:16;31.15;;;17.73;;
41817;SDS011;27493;51.730;5.294;2022-11-20T09:58:42;30.17;;;16.83;;
41817;SDS011;27493;51.730;5.294;2022-11-20T10:01:12;30.03;;;16.60;;
41817;SDS011;27493;51.730;5.294;2022-11-20T10:03:48;28.73;;;16.20;;
41817;SDS011;27493;51.730;5.294;2022-11-20T10:06:15;31.97;;;17.50;;
41817;SDS011;27493;51.730;5.294;2022-11-20T10:08:44;31.37;;;17.00;;
41817;SDS011;27493;51.730;5.294;2022-11-20T10:11:13;29.00;;;17.00;;
41817;SDS011;27493;51.730;5.294;2022-11-20T10:29:13;30.23;;;17.50;;
41817;SDS011;27493;51.730;5.294;2022-11-20T10:31:40;27.93;;;16.47;;
41817;SDS011;27493;51.730;5.294;2022-11-20T10:34:28;32.47;;;18.50;;
41817;SDS011;27493;51.730;5.294;2022-11-20T10:36:59;30.47;;;16.60;;
41817;SDS011;27493;51.730;5.294;2022-11-20T10:41:53;31.80;;;17.33;;
41817;SDS011;27493;51.730;5.294;2022-11-20T10:44:22;32.40;;;18.43;;
41817;SDS011;27493;51.730;5.294;2022-11-20T10:47:16;34.23;;;18.57;;
41817;SDS011;27493;51.730;5.294;2022-11-20T10:49:41;30.77;;;18.17;;
41817;SDS011;27493;51.730;5.294;2022-11-20T10:55:04;34.37;;;18.57;;
41817;SDS011;27493;51.730;5.294;2022-11-20T10:57:36;33.13;;;17.60;;
41817;SDS011;27493;51.730;5.294;2022-11-20T11:00:10;29.37;;;17.97;;
41817;SDS011;27493;51.730;5.294;2022-11-20T11:02:39;31.83;;;18.57;;
41817;SDS011;27493;51.730;5.294;2022-11-20T11:05:40;35.77;;;19.50;;
41817;SDS011;27493;51.730;5.294;2022-11-20T11:07:58;40.60;;;20.13;;
41817;SDS011;27493;51.730;5.294;2022-11-20T11:12:48;40.07;;;19.13;;
41817;SDS011;27493;51.730;5.294;2022-11-20T11:15:24;36.33;;;19.20;;
41817;SDS011;27493;51.730;5.294;2022-11-20T11:17:49;37.60;;;18.87;;
41817;SDS011;27493;51.730;5.294;2022-11-20T11:20:18;35.60;;;18.67;;
41817;SDS011;27493;51.730;5.294;2022-11-20T11:22:48;41.57;;;19.73;;
41817;SDS011;27493;51.730;5.294;2022-11-20T11:27:46;40.93;;;19.77;;
41817;SDS011;27493;51.730;5.294;2022-11-20T11:30:13;36.20;;;19.23;;
41817;SDS011;27493;51.730;5.294;2022-11-20T11:32:39;38.00;;;18.60;;
41817;SDS011;27493;51.730;5.294;2022-11-20T11:35:05;38.10;;;20.10;;
41817;SDS011;27493;51.730;5.294;2022-11-20T11:37:33;40.17;;;18.83;;
41817;SDS011;27493;51.730;5.294;2022-11-20T11:39:59;42.57;;;20.10;;
41817;SDS011;27493;51.730;5.294;2022-11-20T11:42:24;44.20;;;21.67;;
41817;SDS011;27493;51.730;5.294;2022-11-20T11:44:49;46.83;;;20.63;;
41817;SDS011;27493;51.730;5.294;2022-11-20T11:47:36;47.17;;;21.50;;
41817;SDS011;27493;51.730;5.294;2022-11-20T11:52:49;46.80;;;21.00;;
41817;SDS011;27493;51.730;5.294;2022-11-20T11:55:20;50.03;;;21.50;;
41817;SDS011;27493;51.730;5.294;2022-11-20T11:57:57;47.20;;;21.50;;
41817;SDS011;27493;51.730;5.294;2022-11-20T12:00:25;50.30;;;21.63;;
41817;SDS011;27493;51.730;5.294;2022-11-20T12:03:03;49.07;;;21.77;;
41817;SDS011;27493;51.730;5.294;2022-11-20T12:13:01;55.77;;;23.57;;
41817;SDS011;27493;51.730;5.294;2022-11-20T12:15:30;46.97;;;21.93;;
41817;SDS011;27493;51.730;5.294;2022-11-20T12:17:56;50.30;;;22.80;;
41817;SDS011;27493;51.730;5.294;2022-11-20T12:20:22;59.20;;;22.77;;
41817;SDS011;27493;51.730;5.294;2022-11-20T12:22:58;52.50;;;22.53;;
41817;SDS011;27493;51.730;5.294;2022-11-20T12:25:30;50.57;;;22.90;;
41817;SDS011;27493;51.730;5.294;2022-11-20T12:30:21;49.30;;;21.60;;
41817;SDS011;27493;51.730;5.294;2022-11-20T12:38:08;54.30;;;23.10;;
41817;SDS011;27493;51.730;5.294;2022-11-20T12:53:50;62.53;;;26.50;;
41817;SDS011;27493;51.730;5.294;2022-11-20T13:06:46;58.77;;;24.97;;
41817;SDS011;27493;51.730;5.294;2022-11-20T13:09:13;59.43;;;25.47;;
41817;SDS011;27493;51.730;5.294;2022-11-20T13:11:47;54.07;;;24.43;;
41817;SDS011;27493;51.730;5.294;2022-11-20T13:16:45;64.37;;;25.97;;
41817;SDS011;27493;51.730;5.294;2022-11-20T13:19:14;56.60;;;24.87;;
41817;SDS011;27493;51.730;5.294;2022-11-20T13:21:41;57.47;;;25.37;;
41817;SDS011;27493;51.730;5.294;2022-11-20T13:24:18;57.33;;;25.67;;
41817;SDS011;27493;51.730;5.294;2022-11-20T13:26:47;59.53;;;26.03;;
41817;SDS011;27493;51.730;5.294;2022-11-20T13:29:17;57.73;;;25.60;;
41817;SDS011;27493;51.730;5.294;2022-11-20T13:31:43;54.47;;;24.17;;
41817;SDS011;27493;51.730;5.294;2022-11-20T13:34:11;57.13;;;26.30;;
41817;SDS011;27493;51.730;5.294;2022-11-20T13:36:37;58.83;;;25.47;;
41817;SDS011;27493;51.730;5.294;2022-11-20T13:39:23;69.50;;;26.63;;
41817;SDS011;27493;51.730;5.294;2022-11-20T13:41:53;62.60;;;26.63;;
41817;SDS011;27493;51.730;5.294;2022-11-20T13:44:36;60.47;;;25.90;;
41817;SDS011;27493;51.730;5.294;2022-11-20T13:47:03;59.53;;;25.57;;
41817;SDS011;27493;51.730;5.294;2022-11-20T13:49:32;60.90;;;24.43;;
41817;SDS011;27493;51.730;5.294;2022-11-20T13:55:02;64.07;;;26.20;;
41817;SDS011;27493;51.730;5.294;2022-11-20T14:02:25;65.60;;;24.67;;
41817;SDS011;27493;51.730;5.294;2022-11-20T14:04:52;59.17;;;26.23;;
41817;SDS011;27493;51.730;5.294;2022-11-20T14:07:18;55.83;;;24.43;;
41817;SDS011;27493;51.730;5.294;2022-11-20T14:09:52;58.30;;;24.93;;
41817;SDS011;27493;51.730;5.294;2022-11-20T14:12:18;57.60;;;24.33;;
41817;SDS011;27493;51.730;5.294;2022-11-20T14:14:48;62.10;;;25.27;;
41817;SDS011;27493;51.730;5.294;2022-11-20T14:17:18;61.20;;;24.80;;
41817;SDS011;27493;51.730;5.294;2022-11-20T14:19:43;57.63;;;23.47;;
41817;SDS011;27493;51.730;5.294;2022-11-20T14:22:17;61.50;;;25.63;;
41817;SDS011;27493;51.730;5.294;2022-11-20T14:24:43;59.30;;;24.13;;
41817;SDS011;27493;51.730;5.294;2022-11-20T14:27:12;57.73;;;25.50;;
41817;SDS011;27493;51.730;5.294;2022-11-20T14:29:38;65.30;;;25.37;;
41817;SDS011;27493;51.730;5.294;2022-11-20T14:32:03;61.67;;;25.30;;
41817;SDS011;27493;51.730;5.294;2022-11-20T14:34:30;61.47;;;24.40;;
41817;SDS011;27493;51.730;5.294;2022-11-20T14:36:56;66.27;;;26.03;;
41817;SDS011;27493;51.730;5.294;2022-11-20T14:39:24;65.80;;;25.07;;
41817;SDS011;27493;51.730;5.294;2022-11-20T14:41:51;60.23;;;25.20;;
41817;SDS011;27493;51.730;5.294;2022-11-20T14:44:17;66.27;;;25.87;;
41817;SDS011;27493;51.730;5.294;2022-11-20T14:46:42;66.30;;;26.03;;
41817;SDS011;27493;51.730;5.294;2022-11-20T14:49:24;66.30;;;26.83;;
41817;SDS011;27493;51.730;5.294;2022-11-20T14:51:58;63.93;;;26.90;;
41817;SDS011;27493;51.730;5.294;2022-11-20T14:54:30;65.97;;;26.83;;
41817;SDS011;27493;51.730;5.294;2022-11-20T14:56:59;74.67;;;29.47;;
41817;SDS011;27493;51.730;5.294;2022-11-20T14:59:28;73.43;;;28.33;;
41817;SDS011;27493;51.730;5.294;2022-11-20T15:02:01;65.57;;;28.17;;
41817;SDS011;27493;51.730;5.294;2022-11-20T15:04:26;74.37;;;27.17;;
41817;SDS011;27493;51.730;5.294;2022-11-20T15:06:53;74.77;;;27.07;;
41817;SDS011;27493;51.730;5.294;2022-11-20T15:09:18;76.10;;;28.10;;
41817;SDS011;27493;51.730;5.294;2022-11-20T15:11:59;70.03;;;27.43;;
41817;SDS011;27493;51.730;5.294;2022-11-20T15:14:26;70.30;;;26.73;;
41817;SDS011;27493;51.730;5.294;2022-11-20T15:16:52;65.87;;;27.30;;
41817;SDS011;27493;51.730;5.294;2022-11-20T15:19:19;77.03;;;28.60;;
41817;SDS011;27493;51.730;5.294;2022-11-20T15:21:45;74.90;;;28.40;;
41817;SDS011;27493;51.730;5.294;2022-11-20T15:24:10;76.37;;;29.03;;
41817;SDS011;27493;51.730;5.294;2022-11-20T15:26:35;76.73;;;28.20;;
41817;SDS011;27493;51.730;5.294;2022-11-20T15:29:02;77.87;;;28.47;;
41817;SDS011;27493;51.730;5.294;2022-11-20T15:31:27;73.37;;;27.77;;
41817;SDS011;27493;51.730;5.294;2022-11-20T15:33:52;82.57;;;28.10;;
41817;SDS011;27493;51.730;5.294;2022-11-20T15:36:18;74.37;;;26.40;;
41817;SDS011;27493;51.730;5.294;2022-11-20T15:38:43;76.97;;;27.73;;
41817;SDS011;27493;51.730;5.294;2022-11-20T15:41:08;72.17;;;26.37;;
41817;SDS011;27493;51.730;5.294;2022-11-20T15:43:33;76.90;;;27.47;;
41817;SDS011;27493;51.730;5.294;2022-11-20T15:45:59;73.17;;;26.90;;
41817;SDS011;27493;51.730;5.294;2022-11-20T15:50:53;71.27;;;26.70;;
41817;SDS011;27493;51.730;5.294;2022-11-20T15:53:18;72.80;;;26.17;;
41817;SDS011;27493;51.730;5.294;2022-11-20T15:55:44;73.20;;;25.80;;